Flight Track Log - Related Links

Times and Time Zones

All times are in EDT time to prevent confusion due to time zone crossing. See the SKW4756 flight status page for this flight to view local times or setup timezone preferences in your user account.

Time Position Orientation Groundspeed Altitude Reporting Facility
EDT Latitude Longitude Course Direction KTS MPH feet Rate Location/Type
Wed 01:26:55 PM 34.0575 -117.6278 59° Northeast 155 178 35,000  Level Los Angeles Center
Wed 01:27:57 PM 34.0583 -117.6844 271° West 198 228 3,200 -13,935 Descending Los Angeles Center
Wed 01:28:59 PM 34.0808 -117.7806 286° West 240 276 6,200 2,952 Climbing Los Angeles Center
Wed 01:29:00 PM 34.2148 -117.9436 317° Northwest  Level FlightAware Approximate
Wed 01:30:00 PM 34.2980 -118.0473 312° West  Level FlightAware Approximate
Wed 01:30:01 PM 34.1297 -117.8428 314° West 255 293 9,300  Level Los Angeles Center
Wed 01:31:00 PM 34.3541 -117.9251 59° Northeast  Level FlightAware Approximate
Wed 01:31:03 PM 34.1764 -117.8914 319° Northwest 234 269 13,300  Level Los Angeles Center
Wed 01:32:00 PM 34.4026 -117.7949 59° Northeast  Level FlightAware Approximate
Wed 01:32:06 PM 34.2314 -117.8369 39° Northeast 288 331 13,800  Level Los Angeles Center
Wed 01:33:08 PM 34.2878 -117.7414 54° Northeast 339 390 15,100 1,839 Climbing Los Angeles Center
Wed 01:34:10 PM 34.3461 -117.6431 54° Northeast 357 411 17,600 1,839 Climbing Los Angeles Center
Wed 01:35:12 PM 34.4089 -117.5342 55° Northeast 374 430 18,900 1,403 Climbing Los Angeles Center
Wed 01:36:14 PM 34.4714 -117.4275 55° Northeast 395 455 20,500 1,742 Climbing Los Angeles Center
Wed 01:37:16 PM 34.5467 -117.2961 55° Northeast 398 458 22,500 1,645 Climbing Los Angeles Center
Wed 01:38:18 PM 34.6128 -117.1847 54° Northeast 406 467 23,900 1,403 Climbing Los Angeles Center
Wed 01:39:20 PM 34.6783 -117.0700 55° Northeast 415 478 25,400 1,355 Climbing Los Angeles Center
Wed 01:40:22 PM 34.7461 -116.9539 55° Northeast 421 484 26,700 1,152 Climbing Los Angeles Center
Wed 01:41:25 PM 34.8144 -116.8344 55° Northeast 430 495 27,800 1,056 Climbing Los Angeles Center
Wed 01:42:27 PM 34.8981 -116.6878 55° Northeast 439 505 28,900 968 Climbing Los Angeles Center
Wed 01:43:29 PM 34.9717 -116.5647 54° Northeast 450 518 29,800 774 Climbing Los Angeles Center
Wed 01:44:31 PM 35.0589 -116.4561 46° Northeast 448 516 30,500 532 Climbing Los Angeles Center
Wed 01:45:33 PM 35.1469 -116.3447 46° Northeast 454 522 30,900 532 Climbing Los Angeles Center
Wed 01:46:35 PM 35.2369 -116.2308 46° Northeast 463 533 31,600 726 Climbing Los Angeles Center
Wed 01:47:37 PM 35.3494 -116.0919 45° Northeast 478 550 32,400 726 Climbing Los Angeles Center
Wed 01:48:39 PM 35.4431 -115.9731 46° Northeast 484 557 33,100 823 Climbing Los Angeles Center
Wed 01:49:41 PM 35.5333 -115.8622 45° Northeast 480 552 34,100 816 Climbing Los Angeles Center
Wed 01:50:44 PM 35.6461 -115.7186 46° Northeast 486 559 34,800 432 Climbing Los Angeles Center
Wed 01:51:46 PM 35.7400 -115.5967 46° Northeast 490 564 35,000 97 Climbing Los Angeles Center
Wed 01:52:48 PM 35.8350 -115.4761 46° Northeast 492 566 35,000  Level Los Angeles Center
Wed 01:53:50 PM 35.9283 -115.3561 46° Northeast 489 563 35,000  Level Los Angeles Center
Wed 01:54:52 PM 36.0222 -115.2367 46° Northeast 488 562 35,000  Level Los Angeles Center
Wed 01:55:54 PM 36.1331 -115.0928 46° Northeast 487 560 35,000  Level Los Angeles Center
Wed 01:56:56 PM 36.2261 -114.9750 46° Northeast 485 558 35,000  Level Los Angeles Center
Wed 01:57:58 PM 36.3169 -114.8594 46° Northeast 477 549 35,000  Level Los Angeles Center
Wed 01:59:00 PM 36.4064 -114.7450 46° Northeast 469 540 35,000  Level Los Angeles Center
Wed 02:00:03 PM 36.4956 -114.6275 47° Northeast 468 539 35,000  Level Los Angeles Center
Wed 02:01:05 PM 36.6044 -114.4847 46° Northeast 474 545 35,000  Level Los Angeles Center
Wed 02:02:07 PM 36.6944 -114.3669 46° Northeast 473 544 35,000 -242 Level Los Angeles Center
Wed 02:03:09 PM 36.7858 -114.2536 45° Northeast 468 539 34,500 -581 Descending Los Angeles Center
Wed 02:04:11 PM 36.8964 -114.1731 30° Northeast 462 532 33,800 -677 Descending Los Angeles Center
Wed 02:05:13 PM 37.0044 -114.0894 32° Northeast 460 529 33,100 -387 Descending Los Angeles Center
Wed 02:06:15 PM 37.1156 -114.0036 32° Northeast 465 535 33,000 -71 Descending Los Angeles Center
Wed 02:06:37 PM 37.1656 -113.9689 29° Northeast 472 543 33,000  Level Salt Lake Center
Wed 02:07:39 PM 37.2750 -113.8808 33° Northeast 470 541 33,000  Level Salt Lake Center
Wed 02:08:41 PM 37.3883 -113.7931 32° Northeast 475 547 33,000  Level Salt Lake Center
Wed 02:09:42 PM 37.5239 -113.6844 32° Northeast 479 551 33,000  Level Salt Lake Center
Wed 02:10:44 PM 37.6389 -113.5947 32° Northeast 483 556 33,000  Level Salt Lake Center
Wed 02:11:46 PM 37.7519 -113.5061 32° Northeast 478 550 33,000  Level Salt Lake Center
Wed 02:12:48 PM 37.8628 -113.4169 32° Northeast 471 542 33,000  Level Salt Lake Center
Wed 02:13:50 PM 37.9700 -113.3325 32° Northeast 456 525 33,000  Level Salt Lake Center
Wed 02:14:51 PM 38.0792 -113.2433 33° Northeast 462 532 33,000  Level Salt Lake Center
Wed 02:15:53 PM 38.1925 -113.1533 32° Northeast 475 547 33,000  Level Salt Lake Center
Wed 02:16:55 PM 38.3033 -113.0625 33° Northeast 475 547 33,000 -387 Level Salt Lake Center
Wed 02:17:57 PM 38.4186 -112.9814 29° Northeast 474 545 32,200 -976 Descending Salt Lake Center
Wed 02:18:58 PM 38.5631 -112.9081 22° Northeast 467 537 31,000 -585 Descending Salt Lake Center
Wed 02:20:00 PM 38.6792 -112.8461 23° Northeast 456 525 31,000  Level Salt Lake Center
Wed 02:21:02 PM 38.7956 -112.7828 23° Northeast 455 524 31,000  Level Salt Lake Center
Wed 02:22:04 PM 38.9100 -112.7208 23° Northeast 449 517 31,000  Level Salt Lake Center
Wed 02:23:05 PM 39.0247 -112.6586 23° Northeast 449 517 31,000  Level Salt Lake Center
Wed 02:24:07 PM 39.1392 -112.5961 23° Northeast 447 514 31,000  Level Salt Lake Center
Wed 02:25:09 PM 39.2669 -112.5272 23° Northeast 447 514 31,000 -1,355 Level Salt Lake Center
Wed 02:26:11 PM 39.3814 -112.4628 24° Northeast 450 518 28,200 -2,829 Descending Salt Lake Center
Wed 02:27:12 PM 39.4933 -112.3972 24° Northeast 443 510 25,200 -2,927 Descending Salt Lake Center
Wed 02:28:14 PM 39.6019 -112.3358 24° Northeast 431 496 22,200 -2,903 Descending Salt Lake Center
Wed 02:29:16 PM 39.7067 -112.2775 23° Northeast 416 479 19,200 -3,145 Descending Salt Lake Center
Wed 02:30:18 PM 39.8244 -112.2072 25° Northeast 401 461 15,700 -2,423 Descending Salt Lake Center
Wed 02:31:00 PM 39.8878 -112.1786 19° North 348 400 15,000 -689 Descending Salt Lake Center
Wed 02:31:19 PM 39.9094 -112.1561 39° Northeast 333 383 15,000 -98 Level Salt Lake Center
Wed 02:32:01 PM 39.9589 -112.1353 18° North 291 335 14,900 -484 Descending Salt Lake Center
Wed 02:32:21 PM 39.9817 -112.1142 35° Northeast 287 330 14,500 -1,475 Descending Salt Lake Center
Wed 02:33:02 PM 40.0306 -112.0947 17° North 282 325 13,400 -1,452 Descending Salt Lake Center
Wed 02:33:23 PM 40.0517 -112.0725 39° Northeast 277 319 13,000 -1,500 Descending Salt Lake Center
Wed 02:34:02 PM 40.1028 -112.0675 North 277 319 11,900 -1,452 Descending Salt Lake Center
Wed 02:34:25 PM 40.1261 -112.0497 30° Northeast 275 316 11,500 -1,574 Descending Salt Lake Center
Wed 02:35:03 PM 40.1856 -112.0397 North 284 327 10,300 -1,475 Descending Salt Lake Center
Wed 02:35:26 PM 40.2031 -112.0278 28° Northeast 283 326 10,000 -295 Descending Salt Lake Center
Wed 02:36:04 PM 40.2567 -112.0186 North 252 290 10,000  Level Salt Lake Center
Wed 02:36:28 PM 40.2825 -112.0008 28° Northeast 236 272 10,000  Level Salt Lake Center
Wed 02:37:05 PM 40.3111 -112.0003 North 201 231 10,000  Level Salt Lake Center
Wed 02:37:30 PM 40.3342 -111.9881 22° Northeast 192 221 10,000  Level Salt Lake Center
Wed 02:38:05 PM 40.3656 -111.9819 North 197 227 10,000  Level Salt Lake Center
Wed 02:38:31 PM 40.3872 -111.9711 21° North 196 226 10,000  Level Salt Lake Center
Wed 02:39:06 PM 40.4208 -111.9661 North 198 228 10,000  Level Salt Lake Center
Wed 02:39:33 PM 40.4414 -111.9572 18° North 199 229 10,000 -885 Level Salt Lake Center
Wed 02:40:07 PM 40.4722 -111.9656 348° North 199 229 9,100 -1,065 Descending Salt Lake Center
Wed 02:40:35 PM 40.4956 -111.9628 North 196 226 8,900 -98 Descending Salt Lake Center
Wed 02:41:08 PM 40.5269 -111.9697 350° North 184 212 9,000  Climbing Salt Lake Center
Wed 02:41:36 PM 40.5436 -111.9681 North 175 201 8,900 -537 Descending Salt Lake Center
Wed 02:42:15 PM 40.5800 -111.9769 349° North 171 197 8,400 -677 Descending Salt Lake Center
Wed 02:42:38 PM 40.5911 -111.9736 13° North 172 198 8,200 -984 Descending Salt Lake Center
Wed 02:43:16 PM 40.6261 -111.9811 351° North 171 197 7,400 -968 Descending Salt Lake Center
Wed 02:43:40 PM 40.6378 -111.9789 North 169 194 7,200 -500 Descending Salt Lake Center

Login

Don't have an account? Register now (free) for customized features, flight alerts, and more!